Hlavní strana
METAR-TAF:

METAR-TAF

Letiště :

Cape Girardeau, Missouri, Spojené státy americké

zeměpisná šířka: 37-13-32N, zeměpisná délka: 089-34-42W, výška: 104 m

Aktuální stav počasí

Zpráva byla vytvořena před 21 hodinami a 44 minutami, v 23:53 UTC
Jižní vítr 8 kt
Teplota 22°C
Vlhkost vzduchu 88%
Tlak 1008 hPa
Viditelnost: 16.1 km
Skoro jasno ve výšce 12000 ft

METAR: KCGI 202353Z AUTO 18008KT 10SM FEW120 22/20 A2978 RMK AO2 LTG DSNT SE AND S RAE37 TSE2258 SLP079 P0005 60012 T02220200 10289 20217 55003

Čas: 16:37 (21:37 UTC)

Předpověď počasí

Zpráva byla vytvořena před 22 hodinami a 17 minutami, v 23:20 UTC
Předpověď platná od 21 v 00 UTC do 21 v 24 UTC
Jihozápadní vítr 7 kt
Viditelnost: 10 km
Skoro jasno ve výšce 4000 ft
Polojasno ve výšce 11000 ft
Od 21 v 1100 UTC
Západojihozápadní vítr 7 kt
Viditelnost: 10 km
Oblačno až skoro zataženo ve výšce 2500 ft

TAF: KCGI 202320Z 2100/2124 23007KT P6SM FEW040 SCT110 FM211100 24007KT P6SM BKN025

Stav a předpovědi počasí z více než 4 000 letišť (zprávy METAR a TAF).

Červené a žluté tečky na mapě představují dostupné meteorologické stanice.

Když kurzor umístíte na tečku, zobrazí se název stanice.

Pak kliknutím zobrazíte stav a předpověď počasí.

Chcete-li změnit mapu, kliknutím na zelené tlačítko se znaménkem +mapu přiblížíte, kliknutím na zelené tlačítko se znaménkem – mapu oddálíte a kliknutím na zelené šipky přejdete na sousední mapy.


METAR-TAF: